Time;durP1;ratioP1;P1;durP2;ratioP2;P2;SDS_P1;SDS_P2;PMS_P1;PMS_P2;Temp;Humidity;BMP_temperature;BMP_pressure;BME280_temperature;BME280_humidity;BME280_pressure;Samples;Min_cycle;Max_cycle;Signal;HPM_P1;HPM_P2
2023/09/07 00:01:59;;;;;;;4.80;2.85;;;24.90;55.90;26.60;101852.00;;;;5083086;28;20199;-82
2023/09/07 00:04:26;;;;;;;4.55;2.30;;;24.90;56.00;26.50;101847.00;;;;5089778;28;20420;-81
2023/09/07 00:06:53;;;;;;;4.13;2.70;;;24.80;56.10;26.50;101843.00;;;;5089043;28;20225;-81
2023/09/07 00:09:21;;;;;;;2.95;2.65;;;24.80;56.10;26.50;101847.00;;;;5089435;28;20671;-80
2023/09/07 00:11:48;;;;;;;3.50;3.00;;;24.70;56.10;26.40;101848.00;;;;5089084;28;20213;-81
2023/09/07 00:14:17;;;;;;;3.10;2.60;;;24.70;56.20;26.40;101848.00;;;;5088587;28;20201;-82
2023/09/07 00:16:44;;;;;;;3.85;2.88;;;24.70;56.30;26.40;101840.00;;;;5089442;28;20193;-82
2023/09/07 00:19:11;;;;;;;2.70;2.50;;;24.60;56.30;26.30;101836.00;;;;5080904;28;20191;-81
2023/09/07 00:21:38;;;;;;;3.97;2.47;;;24.60;56.30;26.30;101835.00;;;;5074736;28;20206;-81
2023/09/07 00:24:05;;;;;;;2.95;2.58;;;24.60;56.40;26.30;101833.00;;;;5089037;28;20186;-82
2023/09/07 00:26:33;;;;;;;3.33;2.72;;;24.60;56.50;26.20;101831.00;;;;5090152;28;20279;-81
2023/09/07 00:29:00;;;;;;;3.92;2.83;;;24.50;56.50;26.20;101837.00;;;;5088857;28;20198;-81
2023/09/07 00:31:28;;;;;;;3.00;2.70;;;24.50;56.60;26.10;101825.00;;;;5084243;28;20285;-82
2023/09/07 00:33:55;;;;;;;2.90;2.50;;;24.40;56.70;26.10;101828.00;;;;5087094;28;20194;-81
2023/09/07 00:36:22;;;;;;;4.47;2.58;;;24.40;56.60;26.10;101830.00;;;;5084214;28;20331;-82
2023/09/07 00:38:51;;;;;;;3.30;3.00;;;24.40;56.70;26.10;101828.00;;;;5082992;28;20190;-81
2023/09/07 00:41:18;;;;;;;3.88;3.00;;;24.40;56.80;26.00;101822.00;;;;5086847;28;20194;-82
2023/09/07 00:43:45;;;;;;;7.15;3.38;;;24.30;56.80;26.00;101824.00;;;;5083382;28;20198;-81
2023/09/07 00:46:12;;;;;;;3.28;2.97;;;24.30;56.90;25.90;101819.00;;;;5088662;28;20226;-81
2023/09/07 00:48:41;;;;;;;4.03;2.88;;;24.20;56.90;25.90;101825.00;;;;5089860;28;20194;-81
2023/09/07 00:51:08;;;;;;;10.38;3.55;;;24.20;57.00;25.90;101826.00;;;;5079282;28;20198;-82
2023/09/07 00:53:35;;;;;;;3.55;2.90;;;24.20;57.00;25.90;101825.00;;;;5085846;28;20226;-82
2023/09/07 00:56:04;;;;;;;4.43;2.78;;;24.10;57.00;25.80;101823.00;;;;5088868;28;20206;-82
2023/09/07 00:58:33;;;;;;;3.65;2.90;;;24.10;57.10;25.80;101827.00;;;;5085581;28;20289;-81
2023/09/07 01:01:01;;;;;;;4.55;2.80;;;24.10;57.20;25.80;101819.00;;;;5085470;28;20199;-81
2023/09/07 01:03:28;;;;;;;3.22;2.92;;;24.10;57.20;25.80;101820.00;;;;5085166;28;20198;-82
2023/09/07 01:06:04;;;;;;;4.75;3.55;;;24.00;57.20;25.70;101823.00;;;;5088914;28;20731;-82
2023/09/07 01:08:39;;;;;;;3.63;3.33;;;24.00;57.50;25.70;101818.00;;;;5078059;28;20292;-81
2023/09/07 01:11:15;;;;;;;3.97;3.40;;;24.00;57.40;25.60;101810.00;;;;5088700;28;20198;-82
2023/09/07 01:13:42;;;;;;;5.53;3.55;;;24.00;57.70;25.70;101812.00;;;;5083789;28;20206;-81
2023/09/07 01:16:10;;;;;;;7.22;3.47;;;23.90;57.40;25.60;101812.00;;;;5077344;28;20252;-82
2023/09/07 01:18:38;;;;;;;3.47;3.17;;;23.90;57.40;25.60;101814.00;;;;5087793;28;20214;-82
2023/09/07 01:21:08;;;;;;;5.28;3.60;;;23.90;57.50;25.60;101817.00;;;;5087993;28;20201;-82
2023/09/07 01:23:38;;;;;;;4.40;4.00;;;23.90;57.60;25.60;101821.00;;;;5088469;28;20191;-81
2023/09/07 01:26:08;;;;;;;4.82;3.92;;;23.80;57.60;25.60;101811.00;;;;5075378;28;20603;-82
2023/09/07 01:28:36;;;;;;;6.38;4.07;;;23.80;57.60;25.50;101816.00;;;;5089894;28;20206;-82
2023/09/07 01:31:04;;;;;;;5.25;3.80;;;23.80;57.60;25.50;101808.00;;;;5086432;28;20570;-82
2023/09/07 01:33:31;;;;;;;3.60;3.30;;;23.80;57.60;25.50;101805.00;;;;5084854;28;20230;-82
2023/09/07 01:35:59;;;;;;;4.45;3.90;;;23.80;57.70;25.50;101807.00;;;;5070182;28;20202;-82
2023/09/07 01:38:25;;;;;;;4.03;3.67;;;23.80;57.70;25.40;101807.00;;;;5068543;28;20210;-82
2023/09/07 01:40:54;;;;;;;5.57;3.78;;;23.70;57.70;25.40;101808.00;;;;5078144;28;20233;-82
2023/09/07 01:43:21;;;;;;;5.20;4.07;;;23.70;57.80;25.40;101803.00;;;;5082434;28;20205;-82
2023/09/07 01:45:48;;;;;;;5.47;4.00;;;23.60;57.80;25.40;101799.00;;;;5082884;28;20217;-81
2023/09/07 01:48:16;;;;;;;3.65;3.30;;;23.60;57.80;25.30;101802.00;;;;5080040;28;20198;-81
2023/09/07 01:50:43;;;;;;;4.72;3.40;;;23.60;57.90;25.30;101797.00;;;;5068548;28;20195;-82
2023/09/07 01:53:10;;;;;;;5.63;3.67;;;23.60;57.90;25.30;101795.00;;;;5074725;28;20197;-81
2023/09/07 01:55:37;;;;;;;4.22;3.40;;;23.50;57.90;25.30;101790.00;;;;5087751;28;20659;-81
2023/09/07 01:58:05;;;;;;;4.93;3.70;;;23.50;57.90;25.20;101788.00;;;;5088109;28;20209;-81
2023/09/07 02:00:36;;;;;;;4.15;3.70;;;23.50;58.00;25.20;101794.00;;;;5082765;28;20669;-82
2023/09/07 02:03:04;;;;;;;4.53;4.13;;;23.40;57.90;25.20;101788.00;;;;5067790;28;20657;-81
2023/09/07 02:05:32;;;;;;;5.03;4.20;;;23.40;58.00;25.20;101795.00;;;;5068108;28;20229;-82
2023/09/07 02:07:59;;;;;;;5.22;3.88;;;23.40;58.10;25.10;101796.00;;;;5080576;28;20202;-81
2023/09/07 02:10:26;;;;;;;4.13;3.70;;;23.40;58.10;25.10;101797.00;;;;5068107;28;20206;-81
2023/09/07 02:12:53;;;;;;;7.75;3.83;;;23.40;58.20;25.10;101795.00;;;;5077152;28;20191;-81
2023/09/07 02:15:22;;;;;;;3.40;2.97;;;23.30;58.20;25.10;101798.00;;;;5078955;28;20197;-82
2023/09/07 02:17:49;;;;;;;3.80;3.35;;;23.30;58.20;25.00;101792.00;;;;5084628;28;20198;-82
2023/09/07 02:20:16;;;;;;;5.43;3.83;;;23.30;58.20;25.00;101795.00;;;;5086623;28;20295;-81
2023/09/07 02:22:43;;;;;;;4.30;3.67;;;23.30;58.30;25.00;101791.00;;;;5087489;28;20199;-81
2023/09/07 02:25:10;;;;;;;3.88;3.47;;;23.20;58.20;25.00;101799.00;;;;5087471;28;20549;-82
2023/09/07 02:27:37;;;;;;;5.50;3.90;;;23.20;58.20;24.90;101794.00;;;;5087821;28;20956;-81
2023/09/07 02:30:05;;;;;;;5.13;3.45;;;23.20;58.30;24.90;101794.00;;;;5088056;28;20194;-81
2023/09/07 02:32:34;;;;;;;3.50;3.20;;;23.20;58.30;24.90;101788.00;;;;5082821;28;20195;-82
2023/09/07 02:35:01;;;;;;;4.55;3.50;;;23.20;58.40;24.90;101790.00;;;;5077000;28;20198;-81
2023/09/07 02:37:28;;;;;;;4.68;3.65;;;23.10;58.40;24.90;101796.00;;;;5067326;28;20664;-81
2023/09/07 02:39:55;;;;;;;4.25;3.80;;;23.10;58.40;24.90;101801.00;;;;5081810;28;20570;-82
2023/09/07 02:42:22;;;;;;;4.63;4.00;;;23.10;58.40;24.80;101794.00;;;;5087314;28;20194;-82
2023/09/07 02:44:49;;;;;;;3.97;3.58;;;23.10;58.50;24.80;101795.00;;;;5086663;28;20190;-81
2023/09/07 02:47:16;;;;;;;5.32;3.50;;;23.10;58.50;24.80;101798.00;;;;5087203;28;20704;-82
2023/09/07 02:49:45;;;;;;;4.93;4.10;;;23.00;58.50;24.80;101802.00;;;;5086662;28;20210;-81
2023/09/07 02:52:12;;;;;;;4.05;3.60;;;23.00;58.50;24.70;101799.00;;;;5078204;28;20974;-81
2023/09/07 02:54:38;;;;;;;3.97;3.47;;;23.00;58.50;24.70;101795.00;;;;5086389;28;20582;-81
2023/09/07 02:57:06;;;;;;;4.80;3.60;;;23.00;58.60;24.70;101800.00;;;;5087541;28;20195;-81
2023/09/07 02:59:33;;;;;;;3.55;3.13;;;22.90;58.60;24.70;101797.00;;;;5076459;28;20668;-81
2023/09/07 03:01:59;;;;;;;4.10;3.70;;;22.90;58.60;24.70;101792.00;;;;5087769;28;20214;-81
2023/09/07 03:04:26;;;;;;;5.30;3.97;;;22.90;58.70;24.60;101794.00;;;;5087465;28;20442;-81
2023/09/07 03:06:55;;;;;;;4.63;3.42;;;22.90;58.70;24.60;101794.00;;;;5084861;28;20718;-82
2023/09/07 03:09:22;;;;;;;6.80;3.47;;;22.80;58.70;24.60;101790.00;;;;5090615;28;20205;-80
2023/09/07 03:11:49;;;;;;;4.22;3.53;;;22.80;58.70;24.60;101797.00;;;;5090006;28;20205;-81
2023/09/07 03:14:16;;;;;;;4.72;3.88;;;22.80;58.80;24.50;101794.00;;;;5087491;28;20961;-81
2023/09/07 03:16:43;;;;;;;4.18;3.67;;;22.80;58.80;24.50;101794.00;;;;5088781;28;20202;-81
2023/09/07 03:19:10;;;;;;;5.40;4.03;;;22.70;58.80;24.50;101797.00;;;;5090664;28;20202;-81
2023/09/07 03:21:37;;;;;;;5.60;2.95;;;22.70;58.80;24.40;101797.00;;;;5089673;28;20202;-81
2023/09/07 03:24:06;;;;;;;5.78;3.72;;;22.70;58.90;24.40;101787.00;;;;5090079;28;20207;-81
2023/09/07 03:26:34;;;;;;;4.60;3.53;;;22.70;59.00;24.40;101790.00;;;;5084600;28;20223;-81
2023/09/07 03:29:01;;;;;;;3.65;3.05;;;22.70;58.90;24.40;101795.00;;;;5076054;28;20612;-81
2023/09/07 03:31:28;;;;;;;4.30;3.63;;;22.60;58.90;24.40;101785.00;;;;5089391;28;20201;-81
2023/09/07 03:33:55;;;;;;;3.50;3.08;;;22.60;58.90;24.30;101787.00;;;;5082687;28;20201;-82
2023/09/07 03:36:23;;;;;;;4.85;3.50;;;22.60;59.50;24.30;101787.00;;;;5082005;28;20195;-81
2023/09/07 03:38:50;;;;;;;3.28;2.97;;;22.60;59.00;24.30;101793.00;;;;5090581;28;20194;-82
2023/09/07 03:41:18;;;;;;;4.75;4.10;;;22.50;59.00;24.30;101782.00;;;;5076452;28;20198;-82
2023/09/07 03:43:45;;;;;;;3.97;3.42;;;22.50;59.10;24.20;101791.00;;;;5089488;28;20199;-81
2023/09/07 03:46:12;;;;;;;4.57;3.88;;;22.50;59.10;24.20;101794.00;;;;5088700;28;20229;-82
2023/09/07 03:48:39;;;;;;;4.72;3.30;;;22.50;59.10;24.20;101794.00;;;;5090293;28;20769;-82
2023/09/07 03:51:07;;;;;;;5.15;3.40;;;22.50;59.20;24.20;101788.00;;;;5090583;28;20987;-82
2023/09/07 03:53:34;;;;;;;3.92;3.42;;;22.40;59.20;24.20;101790.00;;;;5074345;28;20250;-81
2023/09/07 03:56:05;;;;;;;7.57;3.80;;;22.40;59.20;24.20;101792.00;;;;5086380;28;20782;-82
2023/09/07 03:58:33;;;;;;;4.22;3.83;;;22.40;59.30;24.20;101801.00;;;;5089258;28;20199;-81
2023/09/07 04:01:00;;;;;;;4.13;3.70;;;22.40;59.20;24.20;101796.00;;;;5090134;28;20255;-81
2023/09/07 04:03:27;;;;;;;4.65;3.67;;;22.40;59.30;24.10;101792.00;;;;5090472;28;20567;-81
2023/09/07 04:05:55;;;;;;;3.70;3.40;;;22.40;59.30;24.10;101790.00;;;;5090362;28;20222;-81
2023/09/07 04:08:22;;;;;;;4.63;4.15;;;22.40;59.30;24.10;101789.00;;;;5090381;28;20198;-82
2023/09/07 04:10:49;;;;;;;4.28;3.78;;;22.30;59.30;24.10;101788.00;;;;5089842;28;20221;-82
2023/09/07 04:13:16;;;;;;;4.57;3.88;;;22.30;59.30;24.10;101800.00;;;;5088318;28;20194;-81
2023/09/07 04:15:46;;;;;;;4.38;3.97;;;22.30;59.30;24.00;101796.00;;;;5086817;28;20209;-81
2023/09/07 04:18:15;;;;;;;4.95;3.90;;;22.30;59.30;24.00;101792.00;;;;5089160;28;20299;-81
2023/09/07 04:20:42;;;;;;;4.20;3.78;;;22.30;59.30;24.00;101791.00;;;;5090045;28;20307;-81
2023/09/07 04:23:09;;;;;;;4.97;4.10;;;22.30;59.40;24.00;101795.00;;;;5088325;28;20194;-81
2023/09/07 04:25:38;;;;;;;6.30;4.25;;;22.20;59.40;24.00;101791.00;;;;5090521;28;20210;-81
2023/09/07 04:28:06;;;;;;;4.30;3.90;;;22.20;59.40;24.00;101797.00;;;;5082897;28;20635;-81
2023/09/07 04:30:34;;;;;;;5.68;4.75;;;22.20;59.50;24.00;101795.00;;;;5087569;28;20214;-81
2023/09/07 04:33:02;;;;;;;5.85;4.68;;;22.20;59.50;23.90;101800.00;;;;5078070;28;20198;-81
2023/09/07 04:35:30;;;;;;;5.30;4.22;;;22.20;59.60;23.90;101789.00;;;;5084691;28;20221;-81
2023/09/07 04:37:58;;;;;;;4.80;4.38;;;22.20;59.50;23.90;101797.00;;;;5078930;28;20209;-81
2023/09/07 04:40:25;;;;;;;4.72;4.20;;;22.10;59.50;23.90;101798.00;;;;5090243;28;20194;-81
2023/09/07 04:42:52;;;;;;;4.00;3.60;;;22.10;59.50;23.90;101793.00;;;;5086838;28;20205;-81
2023/09/07 04:45:19;;;;;;;5.88;4.55;;;22.10;59.50;23.80;101795.00;;;;5088636;28;20563;-81
2023/09/07 04:47:46;;;;;;;5.07;4.57;;;22.10;59.50;23.80;101801.00;;;;5089394;28;20233;-81
2023/09/07 04:50:15;;;;;;;4.95;3.72;;;22.10;59.60;23.80;101796.00;;;;5088509;28;20527;-81
2023/09/07 04:52:42;;;;;;;4.43;3.97;;;22.10;59.60;23.80;101802.00;;;;5082661;28;20577;-81
2023/09/07 04:55:10;;;;;;;5.63;4.95;;;22.00;59.60;23.80;101806.00;;;;5078507;28;20599;-82
2023/09/07 04:57:38;;;;;;;6.25;4.90;;;22.00;59.60;23.80;101807.00;;;;5080167;28;20194;-82
2023/09/07 05:00:07;;;;;;;6.05;4.72;;;22.00;59.60;23.70;101807.00;;;;5083665;28;20198;-81
2023/09/07 05:02:38;;;;;;;5.20;4.70;;;22.00;59.60;23.80;101805.00;;;;5082935;28;20664;-82
2023/09/07 05:05:06;;;;;;;5.60;4.38;;;22.00;59.70;23.70;101808.00;;;;5085202;28;20656;-82
2023/09/07 05:07:34;;;;;;;6.85;4.95;;;22.00;59.70;23.70;101806.00;;;;5079569;28;20585;-82
2023/09/07 05:10:02;;;;;;;5.00;3.92;;;21.90;59.70;23.70;101804.00;;;;5085261;28;20228;-82
2023/09/07 05:12:29;;;;;;;4.85;4.25;;;22.00;59.70;23.70;101802.00;;;;5081117;28;20248;-82
2023/09/07 05:14:56;;;;;;;5.07;4.25;;;21.90;59.80;23.70;101809.00;;;;5084683;28;20201;-82
2023/09/07 05:17:23;;;;;;;6.13;4.65;;;21.90;59.80;23.70;101813.00;;;;5085237;28;20202;-82
2023/09/07 05:19:50;;;;;;;7.82;4.70;;;21.90;59.80;23.60;101822.00;;;;5088157;28;20626;-82
2023/09/07 05:22:17;;;;;;;5.05;4.47;;;21.90;59.80;23.60;101816.00;;;;5077478;28;20687;-82
2023/09/07 05:24:47;;;;;;;5.05;4.53;;;21.90;59.90;23.60;101816.00;;;;5084897;28;20202;-81
2023/09/07 05:27:14;;;;;;;6.32;4.40;;;21.90;60.00;23.60;101820.00;;;;5076268;28;20264;-84
2023/09/07 05:29:41;;;;;;;5.30;4.43;;;21.90;60.00;23.60;101818.00;;;;5087385;28;20198;-78
2023/09/07 05:32:09;;;;;;;4.90;4.35;;;21.90;60.00;23.60;101827.00;;;;5086858;28;20728;-81
2023/09/07 05:34:36;;;;;;;4.32;3.83;;;21.90;60.10;23.60;101815.00;;;;5088278;28;20199;-83
2023/09/07 05:37:03;;;;;;;4.43;4.00;;;21.90;60.10;23.60;101825.00;;;;5080483;28;20201;-82
2023/09/07 05:39:30;;;;;;;6.22;4.60;;;21.90;60.20;23.60;101826.00;;;;5081562;28;20199;-83
2023/09/07 05:41:58;;;;;;;4.80;4.38;;;21.90;60.20;23.60;101827.00;;;;5071528;28;20568;-81
2023/09/07 05:44:25;;;;;;;6.28;4.85;;;21.90;60.30;23.70;101832.00;;;;5082238;28;20210;-81
2023/09/07 05:46:52;;;;;;;6.55;4.78;;;21.90;60.30;23.70;101820.00;;;;5074735;28;20214;-80
2023/09/07 05:49:19;;;;;;;4.43;3.95;;;21.90;60.40;23.70;101824.00;;;;5087568;28;20195;-80
2023/09/07 05:51:46;;;;;;;7.63;4.47;;;21.90;60.40;23.70;101817.00;;;;5083350;28;20660;-80
2023/09/07 05:54:13;;;;;;;5.60;4.60;;;21.90;60.50;23.70;101827.00;;;;5077114;28;20233;-83
2023/09/07 05:56:40;;;;;;;6.15;4.68;;;21.90;60.50;23.80;101829.00;;;;5077537;28;20210;-83
2023/09/07 05:59:08;;;;;;;5.35;4.10;;;21.90;60.60;23.80;101841.00;;;;5084745;28;20201;-82
2023/09/07 06:01:35;;;;;;;4.75;4.25;;;22.00;60.80;23.80;101833.00;;;;5088593;28;20206;-82
2023/09/07 06:04:03;;;;;;;6.03;4.80;;;22.00;60.80;23.90;101844.00;;;;5088461;28;20204;-82
2023/09/07 06:06:30;;;;;;;5.07;4.35;;;22.10;60.90;23.90;101835.00;;;;5088505;28;20225;-83
2023/09/07 06:08:58;;;;;;;5.30;4.20;;;22.00;60.90;23.90;101844.00;;;;5087328;28;20190;-83
2023/09/07 06:11:25;;;;;;;4.97;4.47;;;22.10;61.00;24.00;101839.00;;;;5087328;28;20202;-82
2023/09/07 06:13:52;;;;;;;5.15;4.10;;;22.20;61.20;24.00;101843.00;;;;5087872;28;20206;-83
2023/09/07 06:16:20;;;;;;;5.50;4.40;;;22.20;61.20;24.10;101847.00;;;;5084544;28;20191;-83
2023/09/07 06:18:47;;;;;;;4.90;4.15;;;22.30;61.30;24.20;101848.00;;;;5082877;28;20244;-83
2023/09/07 06:21:14;;;;;;;5.00;4.50;;;22.30;61.30;24.20;101845.00;;;;5088054;28;20201;-83
2023/09/07 06:23:42;;;;;;;4.53;4.03;;;22.40;61.40;24.30;101850.00;;;;5069010;28;20191;-84
2023/09/07 06:26:09;;;;;;;6.18;4.88;;;22.50;61.40;24.40;101855.00;;;;5067164;28;20245;-83
2023/09/07 06:28:36;;;;;;;4.50;3.88;;;22.60;61.50;24.40;101853.00;;;;5079639;28;20236;-83
2023/09/07 06:31:03;;;;;;;4.28;3.88;;;22.60;61.50;24.50;101849.00;;;;5088192;28;20198;-83
2023/09/07 06:33:31;;;;;;;5.47;4.20;;;22.70;61.60;24.60;101850.00;;;;5085246;28;20204;-83
2023/09/07 06:36:01;;;;;;;4.40;3.85;;;22.80;61.60;24.70;101850.00;;;;5082533;28;20202;-83
2023/09/07 06:38:28;;;;;;;5.38;4.00;;;22.90;61.60;24.80;101853.00;;;;5081878;28;20731;-83
2023/09/07 06:40:55;;;;;;;6.00;4.32;;;22.90;61.60;24.90;101853.00;;;;5088551;28;20579;-83
2023/09/07 06:43:22;;;;;;;3.75;3.35;;;23.10;61.50;24.90;101857.00;;;;5092577;28;20198;-82
2023/09/07 06:45:49;;;;;;;3.63;3.33;;;23.10;61.40;25.10;101861.00;;;;5092467;28;20211;-83
2023/09/07 06:48:16;;;;;;;3.60;3.15;;;23.20;61.40;25.10;101871.00;;;;5091737;28;20556;-84
2023/09/07 06:50:45;;;;;;;4.22;3.70;;;23.30;61.30;25.20;101863.00;;;;5093346;28;20209;-83
2023/09/07 06:53:12;;;;;;;4.28;3.83;;;23.40;61.20;25.30;101863.00;;;;5091786;28;20199;-83
2023/09/07 06:55:39;;;;;;;4.47;3.67;;;23.50;61.20;25.40;101864.00;;;;5091744;28;20198;-83
2023/09/07 06:58:06;;;;;;;7.03;4.30;;;23.60;61.00;25.50;101864.00;;;;5071819;28;20187;-83
2023/09/07 07:00:33;;;;;;;7.38;3.85;;;23.70;60.90;25.60;101871.00;;;;5080016;28;20198;-84
2023/09/07 07:02:59;;;;;;;6.97;3.70;;;23.80;60.90;25.70;101871.00;;;;5083479;28;20198;-84
2023/09/07 07:05:28;;;;;;;8.88;5.03;;;23.90;60.60;25.80;101870.00;;;;5087100;28;20206;-83
2023/09/07 07:07:56;;;;;;;3.70;3.15;;;24.00;60.30;25.90;101864.00;;;;5077689;28;20222;-83
2023/09/07 07:10:29;;;;;;;5.85;4.15;;;24.10;60.20;25.90;101862.00;;;;5072095;28;20206;-84
2023/09/07 07:12:56;;;;;;;4.18;3.38;;;24.20;60.10;26.10;101880.00;;;;5089106;28;20205;-82
2023/09/07 07:15:23;;;;;;;5.40;3.92;;;24.40;59.90;26.20;101878.00;;;;5089222;28;20202;-83
2023/09/07 07:17:50;;;;;;;5.05;3.60;;;24.50;59.80;26.30;101884.00;;;;5091304;28;20209;-83
2023/09/07 07:20:17;;;;;;;14.50;4.03;;;24.50;59.70;26.40;101878.00;;;;5090420;28;20217;-83
2023/09/07 07:22:44;;;;;;;13.60;4.63;;;24.70;59.60;26.50;101878.00;;;;5090769;28;20202;-83
2023/09/07 07:25:13;;;;;;;6.40;3.60;;;24.70;59.50;26.60;101878.00;;;;5081868;28;20195;-83
2023/09/07 07:27:40;;;;;;;8.13;3.58;;;24.90;59.40;26.70;101877.00;;;;5069897;28;20219;-82
2023/09/07 07:30:08;;;;;;;3.63;3.10;;;24.90;59.40;26.80;101879.00;;;;5070769;28;20895;-82
2023/09/07 07:32:35;;;;;;;7.85;3.40;;;25.00;59.20;26.90;101875.00;;;;5080880;28;20199;-82
2023/09/07 07:35:03;;;;;;;3.53;3.22;;;25.10;59.00;27.00;101881.00;;;;5090084;28;20201;-82
2023/09/07 07:37:30;;;;;;;3.67;3.20;;;25.30;58.90;27.00;101878.00;;;;5084369;28;20220;-82
2023/09/07 07:39:57;;;;;;;4.07;3.63;;;25.30;58.80;27.10;101873.00;;;;5090788;28;20206;-82
2023/09/07 07:42:25;;;;;;;3.42;3.00;;;25.40;58.60;27.20;101871.00;;;;5084895;28;20210;-83
2023/09/07 07:44:52;;;;;;;4.93;3.05;;;25.50;58.40;27.30;101873.00;;;;5070985;28;20203;-83
2023/09/07 07:47:19;;;;;;;4.88;2.80;;;25.60;58.40;27.40;101871.00;;;;5078179;28;20218;-82
2023/09/07 07:49:46;;;;;;;3.10;2.80;;;25.70;58.20;27.50;101865.00;;;;5090488;28;20567;-82
2023/09/07 07:52:13;;;;;;;3.88;3.17;;;25.80;58.10;27.60;101877.00;;;;5090239;28;20667;-83
2023/09/07 07:54:41;;;;;;;4.38;2.67;;;25.90;57.90;27.70;101870.00;;;;5090668;28;20238;-81
2023/09/07 07:57:08;;;;;;;3.22;2.33;;;26.10;57.60;27.80;101875.00;;;;5090586;28;20198;-81
2023/09/07 07:59:36;;;;;;;5.15;2.85;;;26.10;58.00;27.90;101870.00;;;;5090780;28;20660;-82
2023/09/07 08:02:05;;;;;;;2.70;2.50;;;26.20;57.20;28.00;101870.00;;;;5079490;28;20235;-84
2023/09/07 08:04:34;;;;;;;3.20;2.90;;;26.30;57.10;28.10;101873.00;;;;5080971;28;20586;-84
2023/09/07 08:07:03;;;;;;;3.88;2.50;;;26.50;57.20;28.20;101878.00;;;;5069618;28;20225;-83
2023/09/07 08:09:31;;;;;;;3.88;2.88;;;26.50;57.00;28.30;101864.00;;;;5070431;28;20244;-85
2023/09/07 08:11:58;;;;;;;3.35;2.65;;;26.70;56.90;28.40;101861.00;;;;5077118;28;20195;-86
2023/09/07 08:14:26;;;;;;;3.13;2.63;;;26.80;56.70;28.50;101859.00;;;;5090541;28;20202;-86
2023/09/07 08:16:55;;;;;;;2.95;2.30;;;26.90;56.50;28.60;101849.00;;;;5087402;28;20198;-86
2023/09/07 08:19:22;;;;;;;3.72;2.13;;;27.00;56.30;28.70;101849.00;;;;5075333;28;20575;-84
2023/09/07 08:21:49;;;;;;;3.03;2.58;;;27.10;56.20;28.80;101855.00;;;;5090300;28;20198;-84
2023/09/07 08:24:16;;;;;;;2.38;2.15;;;27.20;56.00;28.90;101850.00;;;;5091123;28;20202;-85
2023/09/07 08:26:44;;;;;;;3.40;2.53;;;27.30;55.70;29.00;101854.00;;;;5091813;28;20620;-86
2023/09/07 08:29:11;;;;;;;2.45;2.13;;;27.40;55.50;29.10;101851.00;;;;5090718;28;20229;-87
2023/09/07 08:31:39;;;;;;;3.42;2.67;;;27.50;55.40;29.20;101853.00;;;;5075559;28;20575;-86
2023/09/07 08:34:11;;;;;;;3.45;2.70;;;27.50;55.30;29.20;101850.00;;;;5071915;28;20210;-86
2023/09/07 08:36:39;;;;;;;3.72;2.80;;;27.70;55.20;29.30;101854.00;;;;5077810;28;20209;-87
2023/09/07 08:39:09;;;;;;;2.60;2.40;;;27.80;54.90;29.40;101846.00;;;;5090518;28;20281;-86
2023/09/07 08:41:41;;;;;;;4.90;2.97;;;27.90;54.80;29.60;101850.00;;;;5090178;28;20247;-87
2023/09/07 08:44:09;;;;;;;2.60;2.17;;;28.00;54.70;29.70;101846.00;;;;5089136;28;20199;-83
2023/09/07 08:46:44;;;;;;;3.40;2.47;;;28.00;54.60;29.70;101835.00;;;;5087746;28;20202;-86
2023/09/07 08:49:19;;;;;;;3.33;2.72;;;28.20;54.10;29.80;101844.00;;;;5082454;28;20296;-85
2023/09/07 08:51:47;;;;;;;2.75;2.45;;;28.30;53.80;29.90;101845.00;;;;5077347;28;20194;-86
2023/09/07 08:54:14;;;;;;;3.97;2.42;;;28.40;54.00;30.00;101849.00;;;;5082338;28;20223;-85
2023/09/07 08:56:41;;;;;;;3.65;2.67;;;28.50;53.70;30.10;101847.00;;;;5070515;28;20198;-84
2023/09/07 08:59:09;;;;;;;4.65;2.47;;;28.60;53.60;30.20;101844.00;;;;5087588;28;20190;-85
2023/09/07 09:01:37;;;;;;;3.92;2.90;;;28.70;53.30;30.30;101838.00;;;;5088810;28;20217;-85
2023/09/07 09:04:04;;;;;;;3.42;2.60;;;28.70;53.00;30.30;101840.00;;;;5088876;28;20222;-84
2023/09/07 09:06:33;;;;;;;2.63;2.42;;;28.80;53.00;30.40;101836.00;;;;5088400;28;20218;-86
2023/09/07 09:09:00;;;;;;;6.05;2.70;;;28.90;52.90;30.50;101830.00;;;;5089443;28;20225;-85
2023/09/07 09:11:28;;;;;;;4.60;2.65;;;29.00;53.20;30.60;101836.00;;;;5089152;28;20255;-86
2023/09/07 09:13:55;;;;;;;3.58;2.63;;;29.10;52.60;30.70;101831.00;;;;5089557;28;20220;-84
2023/09/07 09:16:22;;;;;;;2.83;2.53;;;29.20;52.50;30.70;101827.00;;;;5083236;28;20209;-84
2023/09/07 09:18:52;;;;;;;5.45;2.67;;;29.30;52.30;30.80;101823.00;;;;5090180;28;20205;-85
2023/09/07 09:21:19;;;;;;;3.38;2.85;;;29.40;52.00;30.90;101832.00;;;;5089461;28;20220;-84
2023/09/07 09:23:50;;;;;;;4.20;2.72;;;29.40;51.90;30.90;101832.00;;;;5089333;28;20237;-85
2023/09/07 09:26:17;;;;;;;3.20;2.78;;;29.50;51.70;31.00;101834.00;;;;5089908;28;20198;-85
2023/09/07 09:28:46;;;;;;;2.78;2.30;;;29.60;51.70;31.10;101829.00;;;;5088786;28;20225;-89
2023/09/07 09:31:15;;;;;;;2.88;2.55;;;29.70;51.50;31.20;101833.00;;;;5080836;28;20194;-86
2023/09/07 09:33:49;;;;;;;3.17;2.38;;;29.70;51.30;31.20;101833.00;;;;5083549;28;20205;-88
2023/09/07 09:36:16;;;;;;;4.22;2.80;;;29.80;51.20;31.30;101839.00;;;;5069710;28;20190;-86
2023/09/07 09:38:52;;;;;;;3.28;2.63;;;29.90;51.40;31.40;101839.00;;;;5070560;28;20201;-89
2023/09/07 09:41:21;;;;;;;5.95;3.10;;;30.00;51.00;31.50;101837.00;;;;5072952;28;20186;-88
2023/09/07 09:43:50;;;;;;;3.25;2.90;;;30.20;51.10;31.60;101833.00;;;;5083972;28;20304;-86
2023/09/07 09:46:19;;;;;;;5.03;2.70;;;30.20;51.10;31.70;101839.00;;;;5088021;28;20190;-87
2023/09/07 09:48:48;;;;;;;3.55;2.38;;;30.30;50.90;31.80;101833.00;;;;5088397;28;20212;-88
2023/09/07 09:51:17;;;;;;;3.03;2.70;;;30.40;50.90;31.90;101827.00;;;;5081952;28;20270;-84
2023/09/07 09:53:47;;;;;;;3.17;2.58;;;30.50;50.80;32.00;101835.00;;;;5085819;28;20329;-88
2023/09/07 09:56:16;;;;;;;2.80;2.38;;;30.60;50.80;32.10;101834.00;;;;5077083;28;20197;-85
2023/09/07 09:58:45;;;;;;;3.08;2.60;;;30.70;50.50;32.20;101829.00;;;;5088931;28;20194;-84
2023/09/07 10:01:16;;;;;;;3.17;2.67;;;30.80;50.40;32.30;101820.00;;;;5088058;28;20194;-89
2023/09/07 10:03:47;;;;;;;4.85;3.05;;;30.90;50.20;32.40;101825.00;;;;5089190;28;20185;-84
2023/09/07 10:06:21;;;;;;;3.53;3.00;;;31.10;50.00;32.50;101826.00;;;;5083880;28;20218;-86
2023/09/07 10:09:00;;;;;;;8.57;2.75;;;31.20;49.50;32.50;101832.00;;;;5078049;28;20225;-85
2023/09/07 10:11:32;;;;;;;3.35;2.65;;;31.30;48.70;32.70;101820.00;;;;5090105;28;20197;-86
2023/09/07 10:14:00;;;;;;;3.45;2.67;;;31.30;49.10;32.70;101811.00;;;;5088006;28;20202;-86
2023/09/07 10:16:27;;;;;;;2.92;2.72;;;31.40;49.10;32.80;101822.00;;;;5082205;28;20198;-83
2023/09/07 10:18:54;;;;;;;3.00;2.75;;;31.50;49.00;32.90;101823.00;;;;5087127;28;20667;-87
2023/09/07 10:21:26;;;;;;;4.00;3.28;;;31.60;49.50;32.90;101820.00;;;;5086653;28;20270;-86
2023/09/07 10:23:54;;;;;;;2.72;2.42;;;31.60;48.50;33.00;101819.00;;;;5088752;28;20235;-85
2023/09/07 10:26:22;;;;;;;3.17;2.72;;;31.70;48.70;33.10;101818.00;;;;5089171;28;20186;-86
2023/09/07 10:29:03;;;;;;;13.23;3.05;;;31.80;48.70;33.10;101818.00;;;;5088884;28;20225;-86
2023/09/07 10:31:31;;;;;;;2.42;2.22;;;31.90;47.60;33.30;101822.00;;;;5088663;28;20710;-86
2023/09/07 10:34:10;;;;;;;2.67;2.47;;;32.00;48.40;33.30;101822.00;;;;5088449;28;20200;-86
2023/09/07 10:36:38;;;;;;;2.50;2.30;;;32.10;47.50;33.40;101822.00;;;;5076550;28;20210;-87
2023/09/07 10:39:07;;;;;;;3.08;2.60;;;32.10;48.10;33.50;101809.00;;;;5071596;28;20664;-90
2023/09/07 10:41:46;;;;;;;3.55;2.60;;;32.20;48.00;33.60;101818.00;;;;5072375;28;20355;-89
2023/09/07 10:44:15;;;;;;;4.25;2.60;;;32.30;47.40;33.70;101809.00;;;;5089134;28;20664;-91
2023/09/07 10:46:43;;;;;;;3.83;2.72;;;32.40;48.20;33.80;101810.00;;;;5091507;28;20624;-86
2023/09/07 10:49:12;;;;;;;3.38;2.80;;;32.60;48.20;33.90;101804.00;;;;5089268;28;20583;-85
2023/09/07 10:51:45;;;;;;;2.80;2.60;;;32.60;47.80;33.90;101802.00;;;;5090823;28;20575;-87